createdAt,value
2019-04-20T00:04:51.865Z,15.47
2019-04-20T00:10:07.603Z,15.60
2019-04-20T00:15:06.983Z,15.90
2019-04-20T00:20:20.670Z,15.07
2019-04-20T00:25:47.344Z,14.50
2019-04-20T00:30:58.675Z,13.50
2019-04-20T00:35:50.376Z,14.20
2019-04-20T00:41:04.772Z,14.63
2019-04-20T00:46:23.163Z,14.70
2019-04-20T00:51:39.530Z,13.73
2019-04-20T00:56:37.463Z,15.37
2019-04-20T01:02:03.747Z,14.23
2019-04-20T01:07:23.267Z,13.47
2019-04-20T01:12:28.613Z,13.77
2019-04-20T01:17:41.058Z,13.93
2019-04-20T01:22:58.603Z,13.07
2019-04-20T01:28:16.328Z,13.10
2019-04-20T01:33:22.869Z,12.97
2019-04-20T01:38:30.775Z,14.43
2019-04-20T01:43:27.322Z,13.07
2019-04-20T01:48:35.588Z,12.70
2019-04-20T01:53:59.977Z,12.80
2019-04-20T01:59:28.430Z,12.40
2019-04-20T02:04:34.414Z,14.10
2019-04-20T02:09:45.604Z,12.37
2019-04-20T02:14:57.578Z,13.03
2019-04-20T02:20:22.846Z,13.00
2019-04-20T02:25:12.222Z,12.33
2019-04-20T02:30:55.705Z,12.37
2019-04-20T02:36:25.076Z,12.13
2019-04-20T02:41:29.753Z,12.53
2019-04-20T02:46:31.641Z,12.00
2019-04-20T02:51:42.290Z,10.83
2019-04-20T03:01:45.111Z,12.43
2019-04-20T03:06:52.956Z,12.67
2019-04-20T03:12:10.591Z,12.13
2019-04-20T03:17:21.374Z,11.30
2019-04-20T03:22:29.175Z,12.67
2019-04-20T03:27:33.029Z,12.80
2019-04-20T03:38:00.152Z,12.77
2019-04-20T03:42:46.449Z,11.83
2019-04-20T03:48:09.192Z,13.20
2019-04-20T03:53:27.790Z,13.30
2019-04-20T03:58:45.640Z,12.60
2019-04-20T04:04:16.903Z,13.10
2019-04-20T04:09:18.892Z,13.80
2019-04-20T04:14:11.594Z,14.20
2019-04-20T04:19:25.206Z,14.10
2019-04-20T04:24:40.655Z,14.40
2019-04-20T04:29:59.510Z,12.57
2019-04-20T04:35:03.076Z,14.03
2019-04-20T04:40:20.535Z,13.20
2019-04-20T04:45:07.463Z,13.90
2019-04-20T04:50:14.980Z,13.00
2019-04-20T04:55:34.580Z,13.00
2019-04-20T05:00:32.599Z,12.23
2019-04-20T05:06:18.827Z,12.23
2019-04-20T05:11:10.989Z,12.50
2019-04-20T05:16:38.022Z,13.13
2019-04-20T05:27:33.142Z,14.93
2019-04-20T05:32:19.703Z,13.60
2019-04-20T05:37:49.820Z,14.30
2019-04-20T05:42:59.398Z,12.80
2019-04-20T05:48:02.515Z,13.70
2019-04-20T05:53:20.250Z,15.87
2019-04-20T05:58:26.124Z,13.87
2019-04-20T06:03:32.422Z,13.80
2019-04-20T06:08:46.453Z,13.00
2019-04-20T06:14:02.425Z,17.10
2019-04-20T06:19:25.828Z,19.53
2019-04-20T06:24:49.860Z,13.23
2019-04-20T06:29:48.354Z,11.17
2019-04-20T06:34:55.840Z,13.80
2019-04-20T06:40:12.661Z,14.70
2019-04-20T06:45:25.012Z,14.20
2019-04-20T06:50:18.614Z,12.00
2019-04-20T06:55:36.755Z,12.17
2019-04-20T07:00:39.658Z,11.07
2019-04-20T07:06:00.706Z,9.33
2019-04-20T07:11:04.698Z,11.50
2019-04-20T07:16:40.725Z,11.60
2019-04-20T07:22:23.385Z,11.30
2019-04-20T07:27:13.516Z,11.70
2019-04-20T07:32:15.296Z,12.00
2019-04-20T07:42:49.216Z,12.70
2019-04-20T07:47:52.461Z,13.80
2019-04-20T07:52:46.335Z,12.70
2019-04-20T07:57:57.702Z,11.00
2019-04-20T08:03:50.404Z,11.10
2019-04-20T08:08:32.681Z,10.10
2019-04-20T08:13:51.243Z,11.50
2019-04-20T08:18:55.112Z,9.27
2019-04-20T08:24:01.005Z,9.77
2019-04-20T08:29:04.803Z,8.67
2019-04-20T08:34:32.499Z,12.37
2019-04-20T08:39:53.884Z,9.30
2019-04-20T08:45:02.981Z,9.47
2019-04-20T08:55:26.318Z,9.10
2019-04-20T09:00:31.413Z,9.23
2019-04-20T09:05:42.480Z,8.80
2019-04-20T09:10:56.567Z,9.10
2019-04-20T09:15:53.573Z,9.00
2019-04-20T09:21:13.752Z,8.90
2019-04-20T09:26:32.442Z,8.23
2019-04-20T09:31:39.337Z,8.70
2019-04-20T09:37:16.826Z,8.93
2019-04-20T09:42:28.471Z,9.07
2019-04-20T09:47:43.599Z,8.70
2019-04-20T09:53:02.512Z,9.00
2019-04-20T09:58:09.788Z,9.43
2019-04-20T10:03:08.761Z,9.60
2019-04-20T10:08:17.518Z,9.57
2019-04-20T10:13:27.207Z,9.63
2019-04-20T10:18:41.350Z,9.23
2019-04-20T10:23:48.233Z,8.77
2019-04-20T10:29:02.076Z,9.20
2019-04-20T10:34:09.382Z,9.10
2019-04-20T10:39:16.328Z,8.07
2019-04-20T10:44:24.977Z,9.70
2019-04-20T10:49:33.250Z,11.27
2019-04-20T10:54:40.683Z,9.27
2019-04-20T10:59:47.833Z,9.63
2019-04-20T11:04:54.812Z,9.00
2019-04-20T11:10:12.969Z,9.00
2019-04-20T11:15:10.465Z,10.90
2019-04-20T11:20:19.749Z,10.30
2019-04-20T11:25:26.188Z,9.50
2019-04-20T11:30:34.101Z,10.43
2019-04-20T11:35:43.268Z,9.80
2019-04-20T11:41:02.741Z,9.80
2019-04-20T11:45:58.537Z,9.67
2019-04-20T11:51:07.646Z,9.30
2019-04-20T11:56:19.110Z,10.40
2019-04-20T12:01:37.020Z,9.50
2019-04-20T12:06:43.353Z,9.07
2019-04-20T12:12:05.953Z,8.07
2019-04-20T12:16:57.266Z,8.83
2019-04-20T12:22:03.896Z,9.63
2019-04-20T12:27:10.141Z,10.57
2019-04-20T12:32:16.742Z,10.10
2019-04-20T12:37:22.954Z,10.20
2019-04-20T12:42:28.809Z,9.77
2019-04-20T12:47:35.516Z,9.20
2019-04-20T12:52:44.190Z,9.53
2019-04-20T12:58:12.620Z,9.07
2019-04-20T13:03:21.874Z,10.80
2019-04-20T13:08:36.248Z,8.63
2019-04-20T13:13:52.509Z,8.20
2019-04-20T13:19:01.749Z,8.30
2019-04-20T13:24:09.322Z,7.97
2019-04-20T13:29:15.632Z,8.47
2019-04-20T13:34:24.098Z,8.43
2019-04-20T13:39:30.943Z,7.53
2019-04-20T13:44:36.923Z,8.27
2019-04-20T13:49:43.433Z,6.97
2019-04-20T13:54:49.755Z,8.00
2019-04-20T14:00:00.083Z,7.70
2019-04-20T14:05:08.593Z,7.87
2019-04-20T14:10:15.452Z,7.77
2019-04-20T14:15:21.165Z,7.47
2019-04-20T14:20:27.227Z,7.57
2019-04-20T14:25:33.272Z,8.20
2019-04-20T14:30:40.109Z,7.93
2019-04-20T14:35:48.423Z,6.80
2019-04-20T14:40:54.623Z,7.30
2019-04-20T14:46:08.662Z,7.97
2019-04-20T14:51:14.260Z,7.10
2019-04-20T14:56:19.821Z,7.40
2019-04-20T15:01:40.866Z,7.17
2019-04-20T15:06:46.661Z,9.07
2019-04-20T15:11:52.787Z,7.10
2019-04-20T15:17:00.643Z,8.57
2019-04-20T15:22:09.461Z,8.53
2019-04-20T15:27:16.296Z,6.77
2019-04-20T15:32:22.987Z,7.10
2019-04-20T15:37:28.965Z,7.97
2019-04-20T15:42:36.262Z,7.60
2019-04-20T15:47:43.778Z,7.40
2019-04-20T15:52:53.232Z,8.10
2019-04-20T15:57:57.884Z,7.90
2019-04-20T16:03:09.682Z,7.90
2019-04-20T16:08:34.541Z,8.73
2019-04-20T16:13:44.614Z,8.80
2019-04-20T16:18:48.655Z,10.20
2019-04-20T16:24:01.955Z,7.73
2019-04-20T16:29:08.316Z,8.27
2019-04-20T16:34:15.993Z,7.50
2019-04-20T16:39:22.658Z,9.40
2019-04-20T16:44:29.316Z,8.00
2019-04-20T16:49:37.057Z,8.03
2019-04-20T16:54:43.867Z,10.93
2019-04-20T16:59:54.034Z,10.90
2019-04-20T17:04:58.960Z,8.80
2019-04-20T17:10:05.737Z,8.37
2019-04-20T17:15:14.023Z,7.10
2019-04-20T17:20:22.316Z,8.10
2019-04-20T17:25:32.246Z,6.00
2019-04-20T17:30:56.749Z,7.23
2019-04-20T17:36:09.976Z,7.77
2019-04-20T17:41:30.832Z,7.10
2019-04-20T17:46:37.188Z,7.80
2019-04-20T17:51:53.562Z,8.10
2019-04-20T17:56:40.515Z,7.27
2019-04-20T18:02:19.173Z,7.90
2019-04-20T18:07:35.051Z,25.13
2019-04-20T18:12:34.409Z,17.70
2019-04-20T18:18:07.286Z,21.57
2019-04-20T18:22:58.763Z,23.50
2019-04-20T18:28:22.607Z,18.40
2019-04-20T18:33:18.886Z,32.90
2019-04-20T18:38:24.168Z,25.30
2019-04-20T18:43:31.370Z,19.63
2019-04-20T18:49:01.093Z,13.27
2019-04-20T18:53:50.372Z,15.63
2019-04-20T18:58:56.733Z,18.97
2019-04-20T19:04:04.032Z,28.10
2019-04-20T19:09:17.780Z,26.03
2019-04-20T19:15:02.418Z,29.37
2019-04-20T19:20:08.728Z,26.50
2019-04-20T19:25:18.513Z,20.80
2019-04-20T19:30:34.462Z,22.37
2019-04-20T19:35:41.711Z,26.07
2019-04-20T19:40:52.579Z,26.90
2019-04-20T19:46:33.651Z,24.97
2019-04-20T19:51:19.445Z,28.07
2019-04-20T19:56:22.564Z,22.43
2019-04-20T20:01:15.535Z,23.90
2019-04-20T20:06:29.306Z,21.00
2019-04-20T20:11:36.928Z,22.20
2019-04-20T20:16:58.910Z,20.10
2019-04-20T20:22:04.514Z,19.90
2019-04-20T20:27:02.499Z,16.13
2019-04-20T20:32:17.638Z,20.80
2019-04-20T20:37:29.608Z,19.50
2019-04-20T20:42:35.406Z,18.97
2019-04-20T20:47:49.066Z,24.67
2019-04-20T20:52:54.749Z,26.60
2019-04-20T20:58:01.140Z,27.37
2019-04-20T21:03:02.551Z,22.00
2019-04-20T21:08:07.938Z,24.37
2019-04-20T21:13:14.312Z,25.70
2019-04-20T21:18:43.591Z,21.97
2019-04-20T21:23:44.770Z,18.97
2019-04-20T21:28:38.114Z,18.47
2019-04-20T21:33:49.124Z,21.53
2019-04-20T21:38:55.960Z,31.63
2019-04-20T21:44:06.790Z,20.77
2019-04-20T21:49:27.808Z,22.63
2019-04-20T21:54:20.185Z,29.33
2019-04-20T21:59:38.414Z,27.80
2019-04-20T22:04:37.646Z,22.00
2019-04-20T22:09:48.953Z,19.20
2019-04-20T22:15:00.082Z,21.27
2019-04-20T22:20:12.067Z,25.23
2019-04-20T22:25:30.761Z,22.63
2019-04-20T22:30:17.829Z,22.93
2019-04-20T22:35:26.200Z,33.43
2019-04-20T22:40:33.949Z,25.00
2019-04-20T22:45:45.701Z,21.40
2019-04-20T22:51:10.189Z,19.70
2019-04-20T22:56:16.797Z,19.27
2019-04-20T23:01:23.116Z,18.57
2019-04-20T23:06:14.873Z,18.23
2019-04-20T23:11:25.487Z,17.17
2019-04-20T23:16:38.126Z,17.27
2019-04-20T23:21:46.751Z,16.40
2019-04-20T23:26:50.804Z,17.50
2019-04-20T23:32:03.875Z,17.17
2019-04-20T23:37:08.742Z,15.50
2019-04-20T23:42:22.054Z,17.93
2019-04-20T23:47:39.753Z,15.10
2019-04-20T23:53:05.525Z,15.93
2019-04-20T23:57:54.318Z,17.17
